sensor_id;sensor_type;location;lat;lon;timestamp;pressure;altitude;pressure_sealevel;temperature;humidity
8705;BME280;4389;41.932;25.904;2023-03-01T00:00:00;101309.81;;;7.50;100.00
8705;BME280;4389;41.932;25.904;2023-03-01T00:02:28;101308.72;;;7.52;100.00
8705;BME280;4389;41.932;25.904;2023-03-01T00:04:55;101304.63;;;7.48;100.00
8705;BME280;4389;41.932;25.904;2023-03-01T00:07:23;101297.47;;;7.36;100.00
8705;BME280;4389;41.932;25.904;2023-03-01T00:09:50;101297.47;;;7.50;100.00
8705;BME280;4389;41.932;25.904;2023-03-01T00:12:17;101293.13;;;7.49;100.00
8705;BME280;4389;41.932;25.904;2023-03-01T00:14:44;101293.59;;;7.56;100.00
8705;BME280;4389;41.932;25.904;2023-03-01T00:17:11;101294.81;;;7.50;100.00
8705;BME280;4389;41.932;25.904;2023-03-01T00:19:37;101287.44;;;7.43;100.00
8705;BME280;4389;41.932;25.904;2023-03-01T00:22:05;101290.13;;;7.55;100.00
8705;BME280;4389;41.932;25.904;2023-03-01T00:24:33;101288.78;;;7.62;100.00
8705;BME280;4389;41.932;25.904;2023-03-01T00:27:00;101292.25;;;7.63;100.00
8705;BME280;4389;41.932;25.904;2023-03-01T00:29:27;101287.22;;;7.46;100.00
8705;BME280;4389;41.932;25.904;2023-03-01T00:31:54;101292.50;;;7.46;100.00
8705;BME280;4389;41.932;25.904;2023-03-01T00:34:21;101283.06;;;7.56;100.00
8705;BME280;4389;41.932;25.904;2023-03-01T00:36:48;101288.53;;;7.53;100.00
8705;BME280;4389;41.932;25.904;2023-03-01T00:39:15;101285.69;;;7.56;100.00
8705;BME280;4389;41.932;25.904;2023-03-01T00:41:44;101281.97;;;7.46;100.00
8705;BME280;4389;41.932;25.904;2023-03-01T00:44:11;101284.88;;;7.41;100.00
8705;BME280;4389;41.932;25.904;2023-03-01T00:46:38;101277.72;;;7.43;100.00
8705;BME280;4389;41.932;25.904;2023-03-01T00:49:05;101270.03;;;7.40;100.00
8705;BME280;4389;41.932;25.904;2023-03-01T00:51:32;101274.44;;;7.40;100.00
8705;BME280;4389;41.932;25.904;2023-03-01T00:54:01;101260.34;;;7.41;100.00
8705;BME280;4389;41.932;25.904;2023-03-01T00:56:28;101258.06;;;7.49;100.00
8705;BME280;4389;41.932;25.904;2023-03-01T00:58:57;101265.06;;;7.36;100.00
8705;BME280;4389;41.932;25.904;2023-03-01T01:01:26;101253.97;;;7.31;100.00
8705;BME280;4389;41.932;25.904;2023-03-01T01:03:57;101255.19;;;7.39;100.00
8705;BME280;4389;41.932;25.904;2023-03-01T01:06:25;101261.66;;;7.34;100.00
8705;BME280;4389;41.932;25.904;2023-03-01T01:08:53;101251.34;;;7.31;100.00
8705;BME280;4389;41.932;25.904;2023-03-01T01:11:22;101249.44;;;7.33;100.00
8705;BME280;4389;41.932;25.904;2023-03-01T01:13:49;101251.13;;;7.34;100.00
8705;BME280;4389;41.932;25.904;2023-03-01T01:16:18;101236.38;;;7.31;100.00
8705;BME280;4389;41.932;25.904;2023-03-01T01:18:45;101243.41;;;7.45;100.00
8705;BME280;4389;41.932;25.904;2023-03-01T01:21:14;101226.47;;;7.49;100.00
8705;BME280;4389;41.932;25.904;2023-03-01T01:23:42;101240.97;;;7.42;100.00
8705;BME280;4389;41.932;25.904;2023-03-01T01:26:11;101249.28;;;7.36;100.00
8705;BME280;4389;41.932;25.904;2023-03-01T01:28:38;101240.88;;;7.43;100.00
8705;BME280;4389;41.932;25.904;2023-03-01T01:31:05;101233.44;;;7.50;100.00
8705;BME280;4389;41.932;25.904;2023-03-01T01:33:34;101235.97;;;7.51;100.00
8705;BME280;4389;41.932;25.904;2023-03-01T01:36:01;101234.78;;;7.43;100.00
8705;BME280;4389;41.932;25.904;2023-03-01T01:38:28;101239.09;;;7.44;100.00
8705;BME280;4389;41.932;25.904;2023-03-01T01:40:55;101233.97;;;7.55;100.00
8705;BME280;4389;41.932;25.904;2023-03-01T01:43:24;101232.50;;;7.51;100.00
8705;BME280;4389;41.932;25.904;2023-03-01T01:45:55;101231.38;;;7.41;100.00
8705;BME280;4389;41.932;25.904;2023-03-01T01:48:24;101236.25;;;7.47;100.00
8705;BME280;4389;41.932;25.904;2023-03-01T01:51:11;101240.28;;;7.52;100.00
8705;BME280;4389;41.932;25.904;2023-03-01T01:53:39;101244.66;;;7.39;100.00
8705;BME280;4389;41.932;25.904;2023-03-01T01:56:08;101244.91;;;7.49;100.00
8705;BME280;4389;41.932;25.904;2023-03-01T01:58:38;101236.09;;;7.50;100.00
8705;BME280;4389;41.932;25.904;2023-03-01T02:01:07;101240.94;;;7.56;100.00
8705;BME280;4389;41.932;25.904;2023-03-01T02:03:35;101235.81;;;7.40;100.00
8705;BME280;4389;41.932;25.904;2023-03-01T02:06:13;101234.13;;;7.39;100.00
8705;BME280;4389;41.932;25.904;2023-03-01T02:08:44;101233.88;;;7.30;100.00
8705;BME280;4389;41.932;25.904;2023-03-01T02:11:13;101225.16;;;7.42;100.00
8705;BME280;4389;41.932;25.904;2023-03-01T02:13:41;101228.97;;;7.38;100.00
8705;BME280;4389;41.932;25.904;2023-03-01T02:16:09;101226.19;;;7.53;100.00
8705;BME280;4389;41.932;25.904;2023-03-01T02:18:38;101220.84;;;7.41;100.00
8705;BME280;4389;41.932;25.904;2023-03-01T02:21:26;101228.75;;;7.41;100.00
8705;BME280;4389;41.932;25.904;2023-03-01T02:23:56;101217.47;;;7.39;100.00
8705;BME280;4389;41.932;25.904;2023-03-01T02:26:30;101213.16;;;7.38;100.00
8705;BME280;4389;41.932;25.904;2023-03-01T02:29:01;101217.31;;;7.28;100.00
8705;BME280;4389;41.932;25.904;2023-03-01T02:31:28;101209.63;;;7.25;100.00
8705;BME280;4389;41.932;25.904;2023-03-01T02:34:12;101214.94;;;7.37;100.00
8705;BME280;4389;41.932;25.904;2023-03-01T02:36:43;101218.22;;;7.41;100.00
8705;BME280;4389;41.932;25.904;2023-03-01T02:39:15;101211.78;;;7.32;100.00
8705;BME280;4389;41.932;25.904;2023-03-01T02:41:46;101212.94;;;7.41;100.00
8705;BME280;4389;41.932;25.904;2023-03-01T02:44:15;101210.16;;;7.44;100.00
8705;BME280;4389;41.932;25.904;2023-03-01T02:46:43;101210.16;;;7.44;100.00
8705;BME280;4389;41.932;25.904;2023-03-01T02:49:23;101212.94;;;7.41;100.00
8705;BME280;4389;41.932;25.904;2023-03-01T02:52:07;101207.59;;;7.42;100.00
8705;BME280;4389;41.932;25.904;2023-03-01T02:54:40;101208.84;;;7.37;100.00
8705;BME280;4389;41.932;25.904;2023-03-01T02:57:10;101202.63;;;7.38;100.00
8705;BME280;4389;41.932;25.904;2023-03-01T02:59:39;101208.06;;;7.35;100.00
8705;BME280;4389;41.932;25.904;2023-03-01T03:02:17;101202.97;;;7.46;100.00
8705;BME280;4389;41.932;25.904;2023-03-01T03:04:45;101209.34;;;7.56;100.00
8705;BME280;4389;41.932;25.904;2023-03-01T03:07:12;101208.03;;;7.49;100.00
8705;BME280;4389;41.932;25.904;2023-03-01T03:09:39;101210.44;;;7.39;100.00
8705;BME280;4389;41.932;25.904;2023-03-01T03:12:06;101211.78;;;7.32;100.00
8705;BME280;4389;41.932;25.904;2023-03-01T03:14:33;101203.75;;;7.34;100.00
8705;BME280;4389;41.932;25.904;2023-03-01T03:17:02;101197.03;;;7.30;100.00
8705;BME280;4389;41.932;25.904;2023-03-01T03:19:31;101201.91;;;7.36;100.00
8705;BME280;4389;41.932;25.904;2023-03-01T03:21:58;101196.91;;;7.31;100.00
8705;BME280;4389;41.932;25.904;2023-03-01T03:24:25;101196.72;;;7.34;100.00
8705;BME280;4389;41.932;25.904;2023-03-01T03:26:52;101193.81;;;7.25;100.00
8705;BME280;4389;41.932;25.904;2023-03-01T03:29:19;101190.44;;;7.23;100.00
8705;BME280;4389;41.932;25.904;2023-03-01T03:31:46;101184.97;;;7.26;100.00
8705;BME280;4389;41.932;25.904;2023-03-01T03:34:14;101193.44;;;7.31;100.00
8705;BME280;4389;41.932;25.904;2023-03-01T03:36:43;101193.22;;;7.34;100.00
8705;BME280;4389;41.932;25.904;2023-03-01T03:39:10;101191.16;;;7.39;100.00
8705;BME280;4389;41.932;25.904;2023-03-01T03:41:37;101186.25;;;7.47;100.00
8705;BME280;4389;41.932;25.904;2023-03-01T03:44:03;101185.81;;;7.40;100.00
8705;BME280;4389;41.932;25.904;2023-03-01T03:46:30;101182.88;;;7.45;100.00
8705;BME280;4389;41.932;25.904;2023-03-01T03:48:58;101169.50;;;7.48;100.00
8705;BME280;4389;41.932;25.904;2023-03-01T03:51:26;101176.66;;;7.46;100.00
8705;BME280;4389;41.932;25.904;2023-03-01T03:53:52;101178.09;;;7.37;100.00
8705;BME280;4389;41.932;25.904;2023-03-01T03:56:19;101180.84;;;7.36;100.00
8705;BME280;4389;41.932;25.904;2023-03-01T03:58:46;101174.31;;;7.41;100.00
8705;BME280;4389;41.932;25.904;2023-03-01T04:01:13;101176.88;;;7.43;100.00
8705;BME280;4389;41.932;25.904;2023-03-01T04:03:40;101176.88;;;7.43;100.00
8705;BME280;4389;41.932;25.904;2023-03-01T04:06:12;101168.59;;;7.35;100.00
8705;BME280;4389;41.932;25.904;2023-03-01T04:08:40;101161.91;;;7.43;100.00
8705;BME280;4389;41.932;25.904;2023-03-01T04:11:08;101169.88;;;7.42;100.00
8705;BME280;4389;41.932;25.904;2023-03-01T04:13:54;101160.47;;;7.52;100.00
8705;BME280;4389;41.932;25.904;2023-03-01T04:16:22;101163.16;;;7.38;100.00
8705;BME280;4389;41.932;25.904;2023-03-01T04:18:49;101166.53;;;7.40;100.00
8705;BME280;4389;41.932;25.904;2023-03-01T04:21:17;101162.75;;;7.44;100.00
8705;BME280;4389;41.932;25.904;2023-03-01T04:23:47;101155.69;;;7.44;100.00
8705;BME280;4389;41.932;25.904;2023-03-01T04:26:13;101161.66;;;7.34;100.00
8705;BME280;4389;41.932;25.904;2023-03-01T04:28:41;101152.81;;;7.35;100.00
8705;BME280;4389;41.932;25.904;2023-03-01T04:31:12;101156.00;;;7.40;100.00
8705;BME280;4389;41.932;25.904;2023-03-01T04:33:40;101163.78;;;7.41;100.00
8705;BME280;4389;41.932;25.904;2023-03-01T04:36:09;101168.16;;;7.28;100.00
8705;BME280;4389;41.932;25.904;2023-03-01T04:38:36;101173.84;;;7.35;100.00
8705;BME280;4389;41.932;25.904;2023-03-01T04:41:06;101179.13;;;7.35;100.00
8705;BME280;4389;41.932;25.904;2023-03-01T04:43:33;101186.28;;;7.33;100.00
8705;BME280;4389;41.932;25.904;2023-03-01T04:46:01;101176.50;;;7.35;100.00
8705;BME280;4389;41.932;25.904;2023-03-01T04:48:29;101178.94;;;7.38;100.00
8705;BME280;4389;41.932;25.904;2023-03-01T04:50:57;101175.19;;;7.28;100.00
8705;BME280;4389;41.932;25.904;2023-03-01T04:53:24;101174.81;;;7.34;100.00
8705;BME280;4389;41.932;25.904;2023-03-01T04:55:51;101177.25;;;7.37;100.00
8705;BME280;4389;41.932;25.904;2023-03-01T04:58:19;101175.38;;;7.39;100.00
8705;BME280;4389;41.932;25.904;2023-03-01T05:00:46;101178.72;;;7.41;100.00
8705;BME280;4389;41.932;25.904;2023-03-01T05:03:13;101162.94;;;7.41;100.00
8705;BME280;4389;41.932;25.904;2023-03-01T05:05:44;101172.00;;;7.37;100.00
8705;BME280;4389;41.932;25.904;2023-03-01T05:08:13;101174.59;;;7.51;100.00
8705;BME280;4389;41.932;25.904;2023-03-01T05:10:44;101186.06;;;7.50;100.00
8705;BME280;4389;41.932;25.904;2023-03-01T05:13:12;101187.44;;;7.55;100.00
8705;BME280;4389;41.932;25.904;2023-03-01T05:15:41;101181.53;;;7.52;100.00
8705;BME280;4389;41.932;25.904;2023-03-01T05:18:08;101189.44;;;7.52;100.00
8705;BME280;4389;41.932;25.904;2023-03-01T05:20:37;101190.38;;;7.51;100.00
8705;BME280;4389;41.932;25.904;2023-03-01T05:23:04;101194.41;;;7.56;100.00
8705;BME280;4389;41.932;25.904;2023-03-01T05:25:33;101193.97;;;7.50;100.00
8705;BME280;4389;41.932;25.904;2023-03-01T05:28:00;101181.13;;;7.58;100.00
8705;BME280;4389;41.932;25.904;2023-03-01T05:30:30;101181.72;;;7.49;100.00
8705;BME280;4389;41.932;25.904;2023-03-01T05:33:15;101190.38;;;7.51;100.00
8705;BME280;4389;41.932;25.904;2023-03-01T05:35:44;101189.78;;;7.60;100.00
8705;BME280;4389;41.932;25.904;2023-03-01T05:38:12;101188.28;;;7.56;100.00
8705;BME280;4389;41.932;25.904;2023-03-01T05:40:40;101181.13;;;7.58;100.00
8705;BME280;4389;41.932;25.904;2023-03-01T05:43:07;101187.88;;;7.62;100.00
8705;BME280;4389;41.932;25.904;2023-03-01T05:45:36;101185.78;;;7.67;100.00
8705;BME280;4389;41.932;25.904;2023-03-01T05:48:04;101190.75;;;7.71;100.00
8705;BME280;4389;41.932;25.904;2023-03-01T05:50:35;101189.56;;;7.63;100.00
8705;BME280;4389;41.932;25.904;2023-03-01T05:53:04;101184.25;;;7.77;100.00
8705;BME280;4389;41.932;25.904;2023-03-01T05:55:33;101189.41;;;7.78;100.00
8705;BME280;4389;41.932;25.904;2023-03-01T05:58:02;101189.50;;;7.77;100.00
8705;BME280;4389;41.932;25.904;2023-03-01T06:00:30;101188.78;;;7.75;100.00
8705;BME280;4389;41.932;25.904;2023-03-01T06:02:58;101201.38;;;7.70;100.00
8705;BME280;4389;41.932;25.904;2023-03-01T06:05:26;101202.97;;;7.72;100.00
8705;BME280;4389;41.932;25.904;2023-03-01T06:07:54;101204.72;;;7.86;100.00
8705;BME280;4389;41.932;25.904;2023-03-01T06:10:22;101205.06;;;7.94;100.00
8705;BME280;4389;41.932;25.904;2023-03-01T06:12:49;101208.66;;;8.05;100.00
8705;BME280;4389;41.932;25.904;2023-03-01T06:15:16;101212.75;;;7.97;100.00
8705;BME280;4389;41.932;25.904;2023-03-01T06:17:45;101213.69;;;7.96;100.00
8705;BME280;4389;41.932;25.904;2023-03-01T06:20:14;101210.13;;;7.97;100.00
8705;BME280;4389;41.932;25.904;2023-03-01T06:22:42;101205.78;;;7.96;100.00
8705;BME280;4389;41.932;25.904;2023-03-01T06:25:12;101209.28;;;7.96;100.00
8705;BME280;4389;41.932;25.904;2023-03-01T06:27:39;101205.31;;;8.03;100.00
8705;BME280;4389;41.932;25.904;2023-03-01T06:30:08;101206.28;;;8.15;100.00
8705;BME280;4389;41.932;25.904;2023-03-01T06:32:36;101206.75;;;7.95;100.00
8705;BME280;4389;41.932;25.904;2023-03-01T06:35:03;101201.41;;;8.09;100.00
8705;BME280;4389;41.932;25.904;2023-03-01T06:37:30;101213.97;;;8.18;100.00
8705;BME280;4389;41.932;25.904;2023-03-01T06:39:57;101212.50;;;8.14;100.00
8705;BME280;4389;41.932;25.904;2023-03-01T06:42:25;101199.69;;;8.22;100.00
8705;BME280;4389;41.932;25.904;2023-03-01T06:44:52;101201.53;;;8.20;100.00
8705;BME280;4389;41.932;25.904;2023-03-01T06:47:19;101207.50;;;8.36;100.00
8705;BME280;4389;41.932;25.904;2023-03-01T06:49:46;101207.06;;;8.42;100.00
8705;BME280;4389;41.932;25.904;2023-03-01T06:52:13;101216.56;;;8.44;100.00
8705;BME280;4389;41.932;25.904;2023-03-01T06:54:39;101214.03;;;8.43;100.00
8705;BME280;4389;41.932;25.904;2023-03-01T06:57:06;101214.97;;;8.42;100.00
8705;BME280;4389;41.932;25.904;2023-03-01T06:59:34;101219.00;;;8.47;100.00
8705;BME280;4389;41.932;25.904;2023-03-01T07:02:01;101223.09;;;8.51;100.00
8705;BME280;4389;41.932;25.904;2023-03-01T07:04:28;101216.66;;;8.68;100.00
8705;BME280;4389;41.932;25.904;2023-03-01T07:06:56;101218.34;;;8.69;100.00
8705;BME280;4389;41.932;25.904;2023-03-01T07:09:23;101216.69;;;8.55;100.00
8705;BME280;4389;41.932;25.904;2023-03-01T07:11:50;101215.22;;;8.64;100.00
8705;BME280;4389;41.932;25.904;2023-03-01T07:14:17;101219.44;;;8.79;100.00
8705;BME280;4389;41.932;25.904;2023-03-01T07:16:46;101225.66;;;8.78;100.00
8705;BME280;4389;41.932;25.904;2023-03-01T07:19:13;101214.25;;;8.77;100.00
8705;BME280;4389;41.932;25.904;2023-03-01T07:21:40;101219.31;;;8.93;100.00
8705;BME280;4389;41.932;25.904;2023-03-01T07:24:08;101204.09;;;8.96;100.00
8705;BME280;4389;41.932;25.904;2023-03-01T07:26:35;101214.63;;;9.08;100.00
8705;BME280;4389;41.932;25.904;2023-03-01T07:29:04;101210.09;;;9.10;100.00
8705;BME280;4389;41.932;25.904;2023-03-01T07:31:31;101213.28;;;9.03;100.00
8705;BME280;4389;41.932;25.904;2023-03-01T07:33:59;101204.72;;;8.99;100.00
8705;BME280;4389;41.932;25.904;2023-03-01T07:36:27;101207.06;;;8.92;100.00
8705;BME280;4389;41.932;25.904;2023-03-01T07:38:53;101209.13;;;9.11;100.00
8705;BME280;4389;41.932;25.904;2023-03-01T07:41:21;101202.38;;;9.07;100.00
8705;BME280;4389;41.932;25.904;2023-03-01T07:43:48;101203.50;;;9.16;99.89
8705;BME280;4389;41.932;25.904;2023-03-01T07:46:15;101199.84;;;9.06;98.83
8705;BME280;4389;41.932;25.904;2023-03-01T07:48:43;101199.53;;;9.10;100.00
8705;BME280;4389;41.932;25.904;2023-03-01T07:51:11;101191.16;;;9.16;99.91
8705;BME280;4389;41.932;25.904;2023-03-01T07:53:38;101196.69;;;9.13;100.00
8705;BME280;4389;41.932;25.904;2023-03-01T07:56:06;101188.53;;;9.16;99.72
8705;BME280;4389;41.932;25.904;2023-03-01T07:58:34;101192.88;;;9.05;99.57
8705;BME280;4389;41.932;25.904;2023-03-01T08:01:01;101191.66;;;8.86;100.00
8705;BME280;4389;41.932;25.904;2023-03-01T08:03:29;101188.28;;;8.71;100.00
8705;BME280;4389;41.932;25.904;2023-03-01T08:05:55;101181.91;;;8.98;100.00
8705;BME280;4389;41.932;25.904;2023-03-01T08:08:24;101190.03;;;9.08;100.00
8705;BME280;4389;41.932;25.904;2023-03-01T08:10:51;101181.19;;;9.32;99.87
8705;BME280;4389;41.932;25.904;2023-03-01T08:13:18;101182.03;;;9.33;98.92
8705;BME280;4389;41.932;25.904;2023-03-01T08:15:48;101189.34;;;9.29;97.95
8705;BME280;4389;41.932;25.904;2023-03-01T08:18:16;101192.28;;;9.37;98.06
8705;BME280;4389;41.932;25.904;2023-03-01T08:20:43;101193.28;;;9.24;97.72
8705;BME280;4389;41.932;25.904;2023-03-01T08:23:10;101194.53;;;9.18;99.29
8705;BME280;4389;41.932;25.904;2023-03-01T08:25:39;101192.09;;;9.28;98.32
8705;BME280;4389;41.932;25.904;2023-03-01T08:28:06;101193.09;;;9.14;97.77
8705;BME280;4389;41.932;25.904;2023-03-01T08:30:33;101197.97;;;8.95;98.72
8705;BME280;4389;41.932;25.904;2023-03-01T08:33:00;101186.38;;;8.73;100.00
8705;BME280;4389;41.932;25.904;2023-03-01T08:35:27;101196.75;;;8.64;100.00
8705;BME280;4389;41.932;25.904;2023-03-01T08:37:54;101206.03;;;8.69;100.00
8705;BME280;4389;41.932;25.904;2023-03-01T08:40:21;101195.44;;;8.82;99.77
8705;BME280;4389;41.932;25.904;2023-03-01T08:42:49;101194.91;;;8.77;99.60
8705;BME280;4389;41.932;25.904;2023-03-01T08:45:16;101195.06;;;8.75;99.15
8705;BME280;4389;41.932;25.904;2023-03-01T08:47:44;101203.28;;;8.71;99.04
8705;BME280;4389;41.932;25.904;2023-03-01T08:50:11;101205.16;;;8.69;99.72
8705;BME280;4389;41.932;25.904;2023-03-01T08:52:38;101203.91;;;8.62;99.65
8705;BME280;4389;41.932;25.904;2023-03-01T08:55:06;101201.38;;;8.48;100.00
8705;BME280;4389;41.932;25.904;2023-03-01T08:57:33;101193.25;;;8.51;100.00
8705;BME280;4389;41.932;25.904;2023-03-01T09:00:02;101189.88;;;8.49;100.00
8705;BME280;4389;41.932;25.904;2023-03-01T09:02:34;101196.50;;;8.42;100.00
8705;BME280;4389;41.932;25.904;2023-03-01T09:05:01;101196.31;;;8.45;100.00
8705;BME280;4389;41.932;25.904;2023-03-01T09:07:28;101198.63;;;8.62;100.00
8705;BME280;4389;41.932;25.904;2023-03-01T09:09:54;101192.75;;;8.71;100.00
8705;BME280;4389;41.932;25.904;2023-03-01T09:12:22;101196.09;;;8.73;100.00
8705;BME280;4389;41.932;25.904;2023-03-01T09:14:50;101188.91;;;8.75;100.00
8705;BME280;4389;41.932;25.904;2023-03-01T09:17:18;101186.81;;;8.80;100.00
8705;BME280;4389;41.932;25.904;2023-03-01T09:19:47;101190.47;;;8.89;100.00
8705;BME280;4389;41.932;25.904;2023-03-01T09:22:13;101187.84;;;8.89;99.42
8705;BME280;4389;41.932;25.904;2023-03-01T09:24:41;101184.81;;;8.83;100.00
8705;BME280;4389;41.932;25.904;2023-03-01T09:27:07;101181.09;;;8.86;100.00
8705;BME280;4389;41.932;25.904;2023-03-01T09:29:37;101182.25;;;8.82;99.83
8705;BME280;4389;41.932;25.904;2023-03-01T09:32:05;101185.72;;;8.94;99.70
8705;BME280;4389;41.932;25.904;2023-03-01T09:34:35;101194.81;;;9.03;99.67
8705;BME280;4389;41.932;25.904;2023-03-01T09:37:22;101189.91;;;9.09;98.39
8705;BME280;4389;41.932;25.904;2023-03-01T09:39:49;101190.16;;;8.94;99.04
8705;BME280;4389;41.932;25.904;2023-03-01T09:42:16;101184.16;;;8.92;99.09
8705;BME280;4389;41.932;25.904;2023-03-01T09:44:47;101194.56;;;9.06;98.91
8705;BME280;4389;41.932;25.904;2023-03-01T09:47:18;101194.56;;;9.06;97.79
8705;BME280;4389;41.932;25.904;2023-03-01T09:49:56;101197.97;;;8.95;97.93
8705;BME280;4389;41.932;25.904;2023-03-01T09:52:32;101198.19;;;8.93;98.04
8705;BME280;4389;41.932;25.904;2023-03-01T09:55:00;101195.25;;;8.85;98.77
8705;BME280;4389;41.932;25.904;2023-03-01T09:57:36;101200.97;;;8.79;99.40
8705;BME280;4389;41.932;25.904;2023-03-01T10:00:16;101190.16;;;8.94;99.22
8705;BME280;4389;41.932;25.904;2023-03-01T10:02:46;101197.00;;;8.96;98.91
8705;BME280;4389;41.932;25.904;2023-03-01T10:05:30;101192.06;;;8.92;99.72
8705;BME280;4389;41.932;25.904;2023-03-01T10:08:13;101185.97;;;8.92;98.99
8705;BME280;4389;41.932;25.904;2023-03-01T10:10:47;101191.66;;;8.86;98.58
8705;BME280;4389;41.932;25.904;2023-03-01T10:13:17;101185.72;;;8.94;98.76
8705;BME280;4389;41.932;25.904;2023-03-01T10:15:50;101184.88;;;9.06;98.62
8705;BME280;4389;41.932;25.904;2023-03-01T10:18:22;101182.97;;;9.08;97.45
8705;BME280;4389;41.932;25.904;2023-03-01T10:20:53;101177.88;;;9.05;97.66
8705;BME280;4389;41.932;25.904;2023-03-01T10:23:23;101173.78;;;9.01;97.31
8705;BME280;4389;41.932;25.904;2023-03-01T10:26:00;101174.88;;;8.87;97.17
8705;BME280;4389;41.932;25.904;2023-03-01T10:28:35;101165.03;;;8.88;98.10
8705;BME280;4389;41.932;25.904;2023-03-01T10:31:12;101175.09;;;8.71;98.42
8705;BME280;4389;41.932;25.904;2023-03-01T10:33:41;101172.56;;;8.70;99.32
8705;BME280;4389;41.932;25.904;2023-03-01T10:36:09;101168.25;;;8.69;99.97
8705;BME280;4389;41.932;25.904;2023-03-01T10:38:48;101163.59;;;8.60;99.65
8705;BME280;4389;41.932;25.904;2023-03-01T10:41:18;101162.22;;;8.67;99.53
8705;BME280;4389;41.932;25.904;2023-03-01T10:43:49;101161.50;;;8.65;99.95
8705;BME280;4389;41.932;25.904;2023-03-01T10:46:29;101155.78;;;8.58;99.66
8705;BME280;4389;41.932;25.904;2023-03-01T10:49:07;101169.94;;;8.57;99.33
8705;BME280;4389;41.932;25.904;2023-03-01T10:51:40;101156.44;;;8.62;99.89
8705;BME280;4389;41.932;25.904;2023-03-01T10:54:17;101158.09;;;8.63;100.00
8705;BME280;4389;41.932;25.904;2023-03-01T10:56:51;101163.72;;;8.58;99.39
8705;BME280;4389;41.932;25.904;2023-03-01T10:59:26;101162.56;;;8.62;98.94
8705;BME280;4389;41.932;25.904;2023-03-01T11:02:21;101161.50;;;8.52;99.50
8705;BME280;4389;41.932;25.904;2023-03-01T11:05:02;101163.59;;;8.60;99.64
8705;BME280;4389;41.932;25.904;2023-03-01T11:07:30;101154.84;;;8.59;99.28
8705;BME280;4389;41.932;25.904;2023-03-01T11:09:57;101157.19;;;8.64;99.97
8705;BME280;4389;41.932;25.904;2023-03-01T11:12:24;101155.38;;;8.64;99.38
8705;BME280;4389;41.932;25.904;2023-03-01T11:14:54;101152.41;;;8.69;99.18
8705;BME280;4389;41.932;25.904;2023-03-01T11:17:26;101161.06;;;8.58;98.82
8705;BME280;4389;41.932;25.904;2023-03-01T11:20:02;101154.56;;;8.64;99.21
8705;BME280;4389;41.932;25.904;2023-03-01T11:22:34;101143.03;;;8.65;99.40
8705;BME280;4389;41.932;25.904;2023-03-01T11:25:03;101153.91;;;8.60;99.02
8705;BME280;4389;41.932;25.904;2023-03-01T11:27:32;101147.13;;;8.69;98.68
8705;BME280;4389;41.932;25.904;2023-03-01T11:30:03;101135.63;;;8.70;98.20
8705;BME280;4389;41.932;25.904;2023-03-01T11:32:36;101129.28;;;8.72;98.46
8705;BME280;4389;41.932;25.904;2023-03-01T11:35:10;101128.16;;;8.64;97.88
8705;BME280;4389;41.932;25.904;2023-03-01T11:37:44;101129.84;;;8.65;98.12
8705;BME280;4389;41.932;25.904;2023-03-01T11:40:22;101117.09;;;8.59;98.33
8705;BME280;4389;41.932;25.904;2023-03-01T11:42:58;101121.53;;;8.46;99.01
8705;BME280;4389;41.932;25.904;2023-03-01T11:45:31;101114.34;;;8.48;99.25
8705;BME280;4389;41.932;25.904;2023-03-01T11:48:22;101114.88;;;8.53;99.72
8705;BME280;4389;41.932;25.904;2023-03-01T11:50:51;101107.94;;;8.52;99.89
8705;BME280;4389;41.932;25.904;2023-03-01T11:53:37;101110.97;;;8.58;98.81
8705;BME280;4389;41.932;25.904;2023-03-01T11:56:16;101108.31;;;8.58;99.05
8705;BME280;4389;41.932;25.904;2023-03-01T11:59:02;101104.53;;;8.62;98.34
8705;BME280;4389;41.932;25.904;2023-03-01T12:01:44;101105.16;;;8.66;98.21
8705;BME280;4389;41.932;25.904;2023-03-01T12:04:36;101095.69;;;8.51;98.46
8705;BME280;4389;41.932;25.904;2023-03-01T12:07:17;101093.59;;;8.43;98.87
8705;BME280;4389;41.932;25.904;2023-03-01T12:09:59;101096.94;;;8.45;99.26
8705;BME280;4389;41.932;25.904;2023-03-01T12:12:42;101098.66;;;8.46;99.17
8705;BME280;4389;41.932;25.904;2023-03-01T12:15:39;101092.75;;;8.43;99.36
8705;BME280;4389;41.932;25.904;2023-03-01T12:18:34;101091.56;;;8.47;99.57
8705;BME280;4389;41.932;25.904;2023-03-01T12:21:10;101096.41;;;8.53;99.50
8705;BME280;4389;41.932;25.904;2023-03-01T12:23:57;101089.56;;;8.50;99.72
8705;BME280;4389;41.932;25.904;2023-03-01T12:26:33;101095.59;;;8.40;99.46
8705;BME280;4389;41.932;25.904;2023-03-01T12:29:23;101088.63;;;8.39;99.44
8705;BME280;4389;41.932;25.904;2023-03-01T12:32:15;101092.94;;;8.40;99.93
8705;BME280;4389;41.932;25.904;2023-03-01T12:35:05;101093.38;;;8.46;99.53
8705;BME280;4389;41.932;25.904;2023-03-01T12:37:52;101090.84;;;8.45;99.46
8705;BME280;4389;41.932;25.904;2023-03-01T12:40:34;101084.84;;;8.43;99.76
8705;BME280;4389;41.932;25.904;2023-03-01T12:43:19;101094.97;;;8.36;99.63
8705;BME280;4389;41.932;25.904;2023-03-01T12:46:00;101100.31;;;8.35;99.64
8705;BME280;4389;41.932;25.904;2023-03-01T12:48:37;101091.50;;;8.36;99.93
8705;BME280;4389;41.932;25.904;2023-03-01T12:51:10;101089.34;;;8.41;99.71
8705;BME280;4389;41.932;25.904;2023-03-01T12:53:40;101091.91;;;8.42;99.78
8705;BME280;4389;41.932;25.904;2023-03-01T12:56:10;101092.44;;;8.47;99.54
8705;BME280;4389;41.932;25.904;2023-03-01T12:58:48;101097.56;;;8.49;99.69
8705;BME280;4389;41.932;25.904;2023-03-01T13:01:28;101095.69;;;8.51;99.53
8705;BME280;4389;41.932;25.904;2023-03-01T13:04:16;101092.31;;;8.49;99.48
8705;BME280;4389;41.932;25.904;2023-03-01T13:06:54;101089.34;;;8.41;99.71
8705;BME280;4389;41.932;25.904;2023-03-01T13:09:27;101093.19;;;8.37;99.50
8705;BME280;4389;41.932;25.904;2023-03-01T13:11:56;101101.91;;;8.37;100.00
8705;BME280;4389;41.932;25.904;2023-03-01T13:14:44;101097.59;;;8.24;99.65
8705;BME280;4389;41.932;25.904;2023-03-01T13:17:31;101102.25;;;8.33;100.00
8705;BME280;4389;41.932;25.904;2023-03-01T13:19:59;101091.69;;;8.33;99.81
8705;BME280;4389;41.932;25.904;2023-03-01T13:22:29;101097.19;;;8.30;99.52